Time;durP1;ratioP1;P1;durP2;ratioP2;P2;SDS_P1;SDS_P2;PMS_P1;PMS_P2;Temp;Humidity;BMP_temperature;BMP_pressure;BME280_temperature;BME280_humidity;BME280_pressure;Samples;Min_cycle;Max_cycle;Signal;HPM_P1;HPM_P2
2022/03/05 00:00:04;;;;;;;;;;;1.80;99.10;;;;;;5111135;27;20447;-80
2022/03/05 00:02:38;;;;;;;;;;;1.80;99.10;;;;;;5126056;27;20383;-80
2022/03/05 00:05:05;;;;;;;;;;;1.80;99.10;;;;;;5101439;27;19927;-80
2022/03/05 00:07:32;;;;;;;;;;;1.80;99.20;;;;;;5126887;27;19931;-80
2022/03/05 00:09:59;;;;;;;;;;;1.80;99.10;;;;;;5126192;27;19930;-80
2022/03/05 00:12:26;;;;;;;;;;;1.70;99.10;;;;;;5098400;27;19923;-80
2022/03/05 00:14:55;;;;;;;;;;;1.70;99.10;;;;;;5124836;27;19974;-80
2022/03/05 00:17:22;;;;;;;;;;;1.70;99.00;;;;;;5120348;27;19924;-80
2022/03/05 00:19:49;;;;;;;;;;;1.70;99.10;;;;;;5123451;27;20018;-80
2022/03/05 00:22:17;;;;;;;;;;;1.70;99.10;;;;;;5124431;27;20624;-80
2022/03/05 00:24:45;;;;;;;;;;;1.70;99.00;;;;;;5120927;27;19924;-81
2022/03/05 00:27:11;;;;;;;;;;;1.70;99.20;;;;;;5117756;27;19938;-80
2022/03/05 00:29:38;;;;;;;;;;;1.60;99.00;;;;;;5111664;27;19930;-80
2022/03/05 00:32:07;;;;;;;;;;;1.60;99.10;;;;;;5121089;27;19950;-80
2022/03/05 00:34:34;;;;;;;;;;;1.60;99.10;;;;;;5108219;27;19958;-80
2022/03/05 00:37:01;;;;;;;;;;;1.60;99.20;;;;;;5123401;27;19928;-80
2022/03/05 00:39:28;;;;;;;;;;;1.60;99.10;;;;;;5128550;27;19923;-80
2022/03/05 00:41:55;;;;;;;;;;;1.70;99.10;;;;;;5120946;27;20315;-80
2022/03/05 00:44:22;;;;;;;;;;;1.60;99.10;;;;;;5099411;27;19935;-80
2022/03/05 00:46:49;;;;;;;;;;;1.60;99.10;;;;;;5104020;28;19931;-80
2022/03/05 00:49:17;;;;;;;;;;;1.50;99.10;;;;;;5125711;27;19927;-79
2022/03/05 00:51:44;;;;;;;;;;;1.60;99.10;;;;;;5120706;28;19923;-79
2022/03/05 00:54:11;;;;;;;;;;;1.60;99.20;;;;;;5107722;28;19977;-80
2022/03/05 00:56:38;;;;;;;;;;;1.50;99.10;;;;;;5122561;28;20298;-79
2022/03/05 00:59:06;;;;;;;;;;;1.50;99.10;;;;;;5122378;28;20017;-80
2022/03/05 01:01:33;;;;;;;;;;;1.50;99.20;;;;;;5119937;27;19935;-80
2022/03/05 01:04:00;;;;;;;;;;;1.50;99.10;;;;;;5121223;28;20026;-79
2022/03/05 01:06:30;;;;;;;;;;;1.50;99.20;;;;;;5124591;28;19931;-80
2022/03/05 01:08:57;;;;;;;;;;;1.40;99.10;;;;;;5126309;28;19992;-80
2022/03/05 01:11:24;;;;;;;;;;;1.40;99.10;;;;;;5103430;28;19930;-80
2022/03/05 01:13:52;;;;;;;;;;;1.40;99.20;;;;;;5103346;28;20407;-80
2022/03/05 01:16:18;;;;;;;;;;;1.40;99.20;;;;;;5119786;28;20026;-80
2022/03/05 01:18:46;;;;;;;;;;;1.40;99.20;;;;;;5131485;28;19976;-80
2022/03/05 01:21:13;;;;;;;;;;;1.40;99.10;;;;;;5121475;28;19931;-80
2022/03/05 01:23:41;;;;;;;;;;;1.40;99.20;;;;;;5120546;28;20409;-80
2022/03/05 01:26:08;;;;;;;;;;;1.40;99.10;;;;;;5109143;28;20267;-80
2022/03/05 01:28:36;;;;;;;;;;;1.40;99.20;;;;;;5102404;28;20427;-79
2022/03/05 01:31:03;;;;;;;;;;;1.30;99.20;;;;;;5124915;28;19976;-79
2022/03/05 01:33:30;;;;;;;;;;;1.30;99.20;;;;;;5121153;28;19923;-79
2022/03/05 01:35:57;;;;;;;;;;;1.30;99.30;;;;;;5102455;28;20052;-80
2022/03/05 01:38:23;;;;;;;;;;;1.30;99.20;;;;;;5119006;28;19931;-80
2022/03/05 01:40:52;;;;;;;;;;;1.30;99.20;;;;;;5104550;28;19923;-80
2022/03/05 01:43:19;;;;;;;;;;;1.30;99.20;;;;;;5105165;28;19930;-80
2022/03/05 01:45:46;;;;;;;;;;;1.30;99.20;;;;;;5124891;27;19930;-79
2022/03/05 01:48:13;;;;;;;;;;;1.20;99.20;;;;;;5119179;27;20022;-80
2022/03/05 01:50:40;;;;;;;;;;;1.20;99.20;;;;;;5125430;27;19928;-80
2022/03/05 01:53:07;;;;;;;;;;;1.20;99.30;;;;;;5107380;27;19931;-80
2022/03/05 01:55:37;;;;;;;;;;;1.20;99.30;;;;;;5120478;27;19968;-80
2022/03/05 01:58:05;;;;;;;;;;;1.20;99.30;;;;;;5102211;27;19924;-80
2022/03/05 02:00:32;;;;;;;;;;;1.20;99.20;;;;;;5120670;27;20303;-80
2022/03/05 02:02:59;;;;;;;;;;;1.20;99.20;;;;;;5124910;27;19931;-79
2022/03/05 02:05:26;;;;;;;;;;;1.20;99.30;;;;;;5119222;27;19924;-79
2022/03/05 02:07:53;;;;;;;;;;;1.10;99.20;;;;;;5126747;27;19931;-80
2022/03/05 02:10:20;;;;;;;;;;;1.10;99.30;;;;;;5125142;27;20552;-80
2022/03/05 02:12:48;;;;;;;;;;;1.10;99.20;;;;;;5125387;27;19931;-80
2022/03/05 02:15:16;;;;;;;;;;;1.10;99.20;;;;;;5124093;27;19924;-79
2022/03/05 02:17:43;;;;;;;;;;;1.10;99.20;;;;;;5122893;27;20536;-80
2022/03/05 02:20:10;;;;;;;;;;;1.10;99.20;;;;;;5124207;27;19930;-79
2022/03/05 02:22:40;;;;;;;;;;;1.10;99.20;;;;;;5127073;27;19928;-79
2022/03/05 02:25:08;;;;;;;;;;;1.10;99.20;;;;;;5110373;27;19947;-79
2022/03/05 02:27:35;;;;;;;;;;;1.10;99.20;;;;;;5124377;27;19924;-79
2022/03/05 02:30:01;;;;;;;;;;;1.10;99.30;;;;;;5118352;27;20280;-80
2022/03/05 02:32:28;;;;;;;;;;;1.00;99.30;;;;;;5122414;27;19923;-79
2022/03/05 02:34:55;;;;;;;;;;;1.00;99.20;;;;;;5108288;27;19923;-79
2022/03/05 02:37:22;;;;;;;;;;;1.00;99.20;;;;;;5100121;27;19923;-80
2022/03/05 02:39:50;;;;;;;;;;;1.00;99.20;;;;;;5105614;27;19927;-80
2022/03/05 02:42:17;;;;;;;;;;;1.00;99.20;;;;;;5104216;27;20023;-80
2022/03/05 02:44:44;;;;;;;;;;;1.00;99.30;;;;;;5106637;27;20000;-80
2022/03/05 02:47:11;;;;;;;;;;;1.00;99.30;;;;;;5105005;27;20310;-79
2022/03/05 02:49:38;;;;;;;;;;;0.90;99.20;;;;;;5104035;27;20010;-79
2022/03/05 02:52:05;;;;;;;;;;;0.90;99.30;;;;;;5126468;27;19941;-79
2022/03/05 02:54:32;;;;;;;;;;;0.90;99.30;;;;;;5107267;28;20376;-80
2022/03/05 02:57:00;;;;;;;;;;;0.90;99.20;;;;;;5122086;27;19923;-80
2022/03/05 02:59:27;;;;;;;;;;;0.90;99.30;;;;;;5100784;28;19996;-80
2022/03/05 03:01:54;;;;;;;;;;;0.90;99.30;;;;;;5125937;27;19924;-80
2022/03/05 03:04:21;;;;;;;;;;;0.90;99.30;;;;;;5125981;27;19942;-79
2022/03/05 03:06:50;;;;;;;;;;;0.90;99.20;;;;;;5122218;27;20008;-79
2022/03/05 03:09:17;;;;;;;;;;;0.90;99.20;;;;;;5110703;27;19929;-79
2022/03/05 03:11:43;;;;;;;;;;;0.80;99.20;;;;;;5105714;27;20002;-79
2022/03/05 03:14:12;;;;;;;;;;;0.80;99.20;;;;;;5122835;27;20018;-80
2022/03/05 03:16:39;;;;;;;;;;;0.80;99.20;;;;;;5122838;27;20291;-79
2022/03/05 03:19:05;;;;;;;;;;;0.80;99.30;;;;;;5103040;27;20538;-80
2022/03/05 03:21:32;;;;;;;;;;;0.80;99.20;;;;;;5116795;27;19923;-79
2022/03/05 03:24:00;;;;;;;;;;;0.80;99.20;;;;;;5104348;27;20011;-79
2022/03/05 03:26:27;;;;;;;;;;;0.80;99.20;;;;;;5127605;27;19923;-80
2022/03/05 03:28:54;;;;;;;;;;;0.80;99.30;;;;;;5124600;27;19923;-79
2022/03/05 03:31:22;;;;;;;;;;;0.70;99.20;;;;;;5124798;27;19931;-79
2022/03/05 03:33:49;;;;;;;;;;;0.70;99.30;;;;;;5123751;27;20661;-79
2022/03/05 03:36:16;;;;;;;;;;;0.70;99.20;;;;;;5124121;27;19928;-80
2022/03/05 03:38:43;;;;;;;;;;;0.70;99.10;;;;;;5124784;27;19971;-80
2022/03/05 03:41:10;;;;;;;;;;;0.70;99.20;;;;;;5105803;27;20551;-79
2022/03/05 03:43:36;;;;;;;;;;;0.70;99.10;;;;;;5116916;27;19924;-79
2022/03/05 03:46:04;;;;;;;;;;;0.70;99.20;;;;;;5119879;27;20399;-79
2022/03/05 03:48:32;;;;;;;;;;;0.70;99.20;;;;;;5124225;27;19966;-79
2022/03/05 03:50:59;;;;;;;;;;;0.70;99.20;;;;;;5105320;27;19930;-79
2022/03/05 03:53:26;;;;;;;;;;;0.70;99.10;;;;;;5105077;27;19928;-80
2022/03/05 03:55:53;;;;;;;;;;;0.60;99.10;;;;;;5106689;27;20310;-79
2022/03/05 03:58:20;;;;;;;;;;;0.60;99.20;;;;;;5122322;27;20383;-79
2022/03/05 04:00:47;;;;;;;;;;;0.60;99.00;;;;;;5117728;27;19933;-79
2022/03/05 04:03:14;;;;;;;;;;;0.60;99.20;;;;;;5125578;27;19931;-79
2022/03/05 04:05:42;;;;;;;;;;;0.60;99.10;;;;;;5116605;27;19930;-79
2022/03/05 04:10:54;;;;;;;;;;;0.50;99.20;;;;;;5111426;27;19935;-79
2022/03/05 04:13:21;;;;;;;;;;;0.50;99.10;;;;;;5126060;27;19931;-80
2022/03/05 04:15:48;;;;;;;;;;;0.40;99.20;;;;;;5107614;27;19924;-80
2022/03/05 04:18:15;;;;;;;;;;;0.40;99.20;;;;;;5118367;27;19923;-80
2022/03/05 04:20:43;;;;;;;;;;;0.40;99.30;;;;;;5139106;27;20467;-80
2022/03/05 04:23:10;;;;;;;;;;;0.40;99.40;;;;;;5131288;27;19955;-80
2022/03/05 04:25:37;;;;;;;;;;;0.40;99.20;;;;;;5129385;27;19927;-79
2022/03/05 04:28:04;;;;;;;;;;;0.40;99.30;;;;;;5124276;27;19935;-80
2022/03/05 04:30:31;;;;;;;;;;;0.40;99.20;;;;;;5104658;27;19929;-80
2022/03/05 04:32:58;;;;;;;;;;;0.40;99.20;;;;;;5122514;27;19976;-80
2022/03/05 04:35:25;;;;;;;;;;;0.40;99.20;;;;;;5122093;27;20300;-79
2022/03/05 04:37:53;;;;;;;;;;;0.40;99.50;;;;;;5124309;27;20023;-80
2022/03/05 04:40:22;;;;;;;;;;;0.40;99.20;;;;;;5117033;27;20391;-79
2022/03/05 04:42:49;;;;;;;;;;;0.30;99.20;;;;;;5107314;27;19931;-79
2022/03/05 04:45:16;;;;;;;;;;;0.30;99.20;;;;;;5125965;27;19932;-79
2022/03/05 04:47:43;;;;;;;;;;;0.30;99.30;;;;;;5122429;27;19939;-79
2022/03/05 04:50:10;;;;;;;;;;;0.30;99.40;;;;;;5101708;28;19943;-79
2022/03/05 04:52:37;;;;;;;;;;;0.30;99.30;;;;;;5109099;27;19931;-79
2022/03/05 04:55:07;;;;;;;;;;;0.30;99.20;;;;;;5107640;27;20403;-79
2022/03/05 04:57:34;;;;;;;;;;;0.30;99.20;;;;;;5102307;28;19924;-79
2022/03/05 05:00:00;;;;;;;;;;;0.30;99.30;;;;;;5119323;28;21520;-79
2022/03/05 05:02:27;;;;;;;;;;;0.30;99.30;;;;;;5123735;28;20395;-79
2022/03/05 05:04:54;;;;;;;;;;;0.30;99.30;;;;;;5117597;28;19923;-80
2022/03/05 05:07:21;;;;;;;;;;;0.20;99.20;;;;;;5103993;28;19938;-79
2022/03/05 05:09:48;;;;;;;;;;;0.20;99.30;;;;;;5121651;28;19928;-79
2022/03/05 05:12:16;;;;;;;;;;;0.20;99.30;;;;;;5105783;28;20030;-80
2022/03/05 05:14:43;;;;;;;;;;;0.20;99.30;;;;;;5103705;28;19928;-79
2022/03/05 05:17:10;;;;;;;;;;;0.20;99.30;;;;;;5118610;28;19931;-79
2022/03/05 05:19:37;;;;;;;;;;;0.20;99.30;;;;;;5106316;27;19931;-79
2022/03/05 05:22:05;;;;;;;;;;;0.20;99.30;;;;;;5117298;27;19930;-80
2022/03/05 05:24:33;;;;;;;;;;;0.20;99.30;;;;;;5103021;27;19930;-79
2022/03/05 05:27:00;;;;;;;;;;;0.10;99.20;;;;;;5122657;27;19959;-79
2022/03/05 05:29:28;;;;;;;;;;;0.20;99.20;;;;;;5125709;27;19931;-79
2022/03/05 05:31:56;;;;;;;;;;;0.10;99.20;;;;;;5118728;27;19970;-79
2022/03/05 05:34:23;;;;;;;;;;;0.10;99.30;;;;;;5122765;27;20405;-79
2022/03/05 05:36:50;;;;;;;;;;;0.10;99.20;;;;;;5103118;27;19924;-79
2022/03/05 05:39:17;;;;;;;;;;;0.10;99.20;;;;;;5101686;27;19953;-79
2022/03/05 05:41:45;;;;;;;;;;;0.10;99.30;;;;;;5104740;27;19924;-79
2022/03/05 05:44:12;;;;;;;;;;;0.10;99.20;;;;;;5122829;27;19923;-79
2022/03/05 05:46:40;;;;;;;;;;;0.10;99.30;;;;;;5106203;27;19932;-79
2022/03/05 05:49:07;;;;;;;;;;;0.00;99.60;;;;;;5123331;27;19928;-80
2022/03/05 05:51:34;;;;;;;;;;;0.00;99.20;;;;;;5125625;27;20577;-80
2022/03/05 05:54:01;;;;;;;;;;;0.00;99.30;;;;;;5121972;27;19931;-79
2022/03/05 05:56:28;;;;;;;;;;;0.00;99.20;;;;;;5122706;27;19938;-80
2022/03/05 05:58:55;;;;;;;;;;;0.00;99.30;;;;;;5121793;27;19930;-80
2022/03/05 06:01:22;;;;;;;;;;;0.00;99.20;;;;;;5118547;27;20011;-79
2022/03/05 06:03:50;;;;;;;;;;;0.00;99.30;;;;;;5100605;28;19963;-79
2022/03/05 06:06:17;;;;;;;;;;;0.00;99.20;;;;;;5125768;27;20386;-79
2022/03/05 06:08:44;;;;;;;;;;;0.00;99.30;;;;;;5122177;27;20439;-80
2022/03/05 06:11:11;;;;;;;;;;;0.00;99.30;;;;;;5118830;27;20298;-80
2022/03/05 06:13:38;;;;;;;;;;;-0.10;99.30;;;;;;5120747;27;20295;-80
2022/03/05 06:16:06;;;;;;;;;;;-0.10;99.20;;;;;;5123097;27;19928;-80
2022/03/05 06:18:33;;;;;;;;;;;-0.10;99.30;;;;;;5120899;27;19939;-80
2022/03/05 06:21:01;;;;;;;;;;;-0.10;99.30;;;;;;5126536;27;19927;-80
2022/03/05 06:23:30;;;;;;;;;;;0.00;99.30;;;;;;5127482;27;19946;-80
2022/03/05 06:25:58;;;;;;;;;;;-0.10;99.30;;;;;;5120212;27;19938;-80
2022/03/05 06:28:24;;;;;;;;;;;-0.10;99.20;;;;;;5112046;27;20341;-80
2022/03/05 06:30:51;;;;;;;;;;;-0.10;99.30;;;;;;5118883;27;19927;-80
2022/03/05 06:33:19;;;;;;;;;;;-0.10;99.30;;;;;;5108719;27;20371;-79
2022/03/05 06:35:46;;;;;;;;;;;-0.10;99.40;;;;;;5120654;27;20409;-80
2022/03/05 06:38:15;;;;;;;;;;;-0.10;99.50;;;;;;5123005;27;20402;-79
2022/03/05 06:40:43;;;;;;;;;;;-0.10;99.40;;;;;;5102618;27;19937;-81
2022/03/05 06:43:09;;;;;;;;;;;-0.10;99.40;;;;;;5104920;27;19923;-80
2022/03/05 06:45:36;;;;;;;;;;;-0.10;99.40;;;;;;5110440;27;20061;-80
2022/03/05 06:48:04;;;;;;;;;;;-0.10;99.50;;;;;;5123110;27;19927;-80
2022/03/05 06:50:31;;;;;;;;;;;-0.20;99.40;;;;;;5119306;27;19931;-79
2022/03/05 06:52:57;;;;;;;;;;;-0.10;99.50;;;;;;5101871;27;19924;-79
2022/03/05 06:55:26;;;;;;;;;;;-0.20;99.40;;;;;;5102832;27;19996;-79
2022/03/05 06:57:53;;;;;;;;;;;-0.10;99.40;;;;;;5121761;27;19935;-79
2022/03/05 07:00:20;;;;;;;;;;;-0.10;99.50;;;;;;5100978;27;19971;-79
2022/03/05 07:02:48;;;;;;;;;;;-0.20;99.50;;;;;;5103899;27;19938;-78
2022/03/05 07:05:15;;;;;;;;;;;-0.20;99.50;;;;;;5098740;27;19923;-79
2022/03/05 07:07:42;;;;;;;;;;;-0.20;99.50;;;;;;5114491;27;20000;-78
2022/03/05 07:10:09;;;;;;;;;;;-0.20;99.60;;;;;;5116606;27;19923;-78
2022/03/05 07:12:37;;;;;;;;;;;-0.20;99.70;;;;;;5115980;27;20044;-79
2022/03/05 07:15:08;;;;;;;;;;;-0.20;99.80;;;;;;5113545;27;19923;-80
2022/03/05 07:17:35;;;;;;;;;;;-0.20;99.80;;;;;;5101972;27;19924;-78
2022/03/05 07:20:01;;;;;;;;;;;-0.20;99.80;;;;;;5111400;27;19927;-78
2022/03/05 07:22:28;;;;;;;;;;;-0.10;99.90;;;;;;5096548;27;19934;-78
2022/03/05 07:24:55;;;;;;;;;;;-0.10;99.90;;;;;;5124331;27;19966;-78
2022/03/05 07:27:22;;;;;;;;;;;-0.20;99.90;;;;;;5124584;27;20003;-79
2022/03/05 07:29:49;;;;;;;;;;;-0.20;99.90;;;;;;5102716;27;20004;-79
2022/03/05 07:32:18;;;;;;;;;;;-0.20;99.90;;;;;;5120853;27;19930;-79
2022/03/05 07:34:44;;;;;;;;;;;-0.20;99.90;;;;;;5123169;27;20015;-78
2022/03/05 07:37:11;;;;;;;;;;;-0.10;99.90;;;;;;5120043;27;19969;-79
2022/03/05 07:39:38;;;;;;;;;;;-0.20;99.90;;;;;;5121912;27;19924;-78
2022/03/05 07:42:05;;;;;;;;;;;-0.20;99.90;;;;;;5115133;27;19932;-78
2022/03/05 07:44:35;;;;;;;;;;;-0.20;99.90;;;;;;5102745;27;19928;-78
2022/03/05 07:47:02;;;;;;;;;;;-0.20;99.90;;;;;;5119521;27;19924;-79
2022/03/05 07:49:30;;;;;;;;;;;-0.20;99.90;;;;;;5125482;27;19954;-78
2022/03/05 07:51:57;;;;;;;;;;;-0.20;99.90;;;;;;5119424;27;19927;-79
2022/03/05 07:54:28;;;;;;;;;;;-0.20;99.90;;;;;;5102532;27;19960;-79
2022/03/05 07:56:56;;;;;;;;;;;-0.20;99.90;;;;;;5123140;27;20001;-79
2022/03/05 07:59:22;;;;;;;;;;;-0.20;99.90;;;;;;5120886;27;20458;-79
2022/03/05 08:01:49;;;;;;;;;;;-0.20;99.90;;;;;;5117673;27;19930;-79
2022/03/05 08:04:16;;;;;;;;;;;-0.10;99.90;;;;;;5122912;27;19924;-78
2022/03/05 08:06:44;;;;;;;;;;;-0.20;99.90;;;;;;5119719;27;19931;-78
2022/03/05 08:09:11;;;;;;;;;;;-0.20;99.90;;;;;;5117508;27;20010;-78
2022/03/05 08:11:38;;;;;;;;;;;-0.20;99.90;;;;;;5118659;27;20413;-78
2022/03/05 08:14:05;;;;;;;;;;;-0.20;99.90;;;;;;5104818;27;19927;-79
2022/03/05 08:16:32;;;;;;;;;;;-0.20;99.90;;;;;;5118149;27;19923;-79
2022/03/05 08:19:00;;;;;;;;;;;-0.20;99.90;;;;;;5098476;27;20379;-78
2022/03/05 08:21:27;;;;;;;;;;;-0.10;99.90;;;;;;5121186;27;20010;-78
2022/03/05 08:23:56;;;;;;;;;;;-0.20;99.90;;;;;;5099306;27;19927;-78
2022/03/05 08:26:23;;;;;;;;;;;-0.20;99.90;;;;;;5118306;27;19928;-78
2022/03/05 08:28:49;;;;;;;;;;;-0.20;99.90;;;;;;5115333;27;20403;-78
2022/03/05 08:31:16;;;;;;;;;;;-0.20;99.90;;;;;;5118519;27;19931;-78
2022/03/05 08:33:43;;;;;;;;;;;-0.20;99.90;;;;;;5117709;27;20443;-78
2022/03/05 08:36:10;;;;;;;;;;;-0.20;99.90;;;;;;5121214;27;19927;-78
2022/03/05 08:38:37;;;;;;;;;;;-0.20;99.90;;;;;;5119871;27;19924;-78
2022/03/05 08:41:05;;;;;;;;;;;-0.20;99.90;;;;;;5115549;27;19930;-78
2022/03/05 08:43:32;;;;;;;;;;;-0.10;99.90;;;;;;5116141;27;20477;-78
2022/03/05 08:46:01;;;;;;;;;;;-0.10;99.90;;;;;;5120810;27;19928;-78
2022/03/05 08:48:28;;;;;;;;;;;-0.10;99.90;;;;;;5120403;27;19924;-78
2022/03/05 08:50:55;;;;;;;;;;;-0.10;99.90;;;;;;5118566;27;19935;-79
2022/03/05 08:53:22;;;;;;;;;;;-0.10;99.90;;;;;;5100436;27;19942;-78
2022/03/05 08:55:48;;;;;;;;;;;-0.10;99.90;;;;;;5117376;27;19924;-78
2022/03/05 08:58:17;;;;;;;;;;;-0.10;99.90;;;;;;5098370;28;19939;-77
2022/03/05 09:00:44;;;;;;;;;;;-0.10;99.90;;;;;;5100036;28;20429;-78
2022/03/05 09:03:11;;;;;;;;;;;-0.10;99.90;;;;;;5119403;28;20023;-78
2022/03/05 09:05:38;;;;;;;;;;;0.00;99.90;;;;;;5108230;28;19924;-78
2022/03/05 09:08:08;;;;;;;;;;;-0.10;99.90;;;;;;5116446;28;19976;-79
2022/03/05 09:10:38;;;;;;;;;;;-0.10;99.90;;;;;;5114315;28;20027;-78
2022/03/05 09:13:06;;;;;;;;;;;-0.10;99.90;;;;;;5095148;28;19923;-79
2022/03/05 09:15:34;;;;;;;;;;;-0.10;99.90;;;;;;5118915;28;19930;-78
2022/03/05 09:18:01;;;;;;;;;;;-0.10;99.90;;;;;;5119531;28;19924;-79
2022/03/05 09:20:28;;;;;;;;;;;-0.10;99.90;;;;;;5098887;28;21823;-78
2022/03/05 09:22:55;;;;;;;;;;;-0.10;99.90;;;;;;5098927;28;19931;-78
2022/03/05 09:25:22;;;;;;;;;;;-0.10;99.90;;;;;;5104138;28;20413;-78
2022/03/05 09:27:53;;;;;;;;;;;-0.10;99.90;;;;;;5102494;28;19931;-78
2022/03/05 09:30:20;;;;;;;;;;;-0.10;99.90;;;;;;5115885;28;19939;-78
2022/03/05 09:32:48;;;;;;;;;;;-0.10;99.90;;;;;;5113420;28;19924;-78
2022/03/05 09:35:15;;;;;;;;;;;0.00;99.90;;;;;;5118029;28;19923;-78
2022/03/05 09:37:42;;;;;;;;;;;-0.10;99.90;;;;;;5096152;28;19931;-78
2022/03/05 09:40:10;;;;;;;;;;;0.00;99.90;;;;;;5115712;28;19924;-78
2022/03/05 09:42:37;;;;;;;;;;;-0.10;99.90;;;;;;5119648;28;20419;-78
2022/03/05 09:45:04;;;;;;;;;;;-0.10;99.90;;;;;;5118573;28;20402;-78
2022/03/05 09:47:32;;;;;;;;;;;0.00;99.90;;;;;;5117248;28;19931;-78
2022/03/05 09:50:03;;;;;;;;;;;0.00;99.90;;;;;;5113901;28;19935;-78
2022/03/05 09:52:30;;;;;;;;;;;0.00;99.90;;;;;;5116228;28;19931;-78
2022/03/05 09:54:57;;;;;;;;;;;0.00;99.90;;;;;;5103120;28;19932;-77
2022/03/05 09:57:24;;;;;;;;;;;0.00;99.90;;;;;;5116077;28;19931;-79
2022/03/05 09:59:51;;;;;;;;;;;0.00;99.90;;;;;;5118478;28;19923;-80
2022/03/05 10:02:19;;;;;;;;;;;0.00;99.90;;;;;;5103866;28;19927;-79
2022/03/05 10:04:46;;;;;;;;;;;0.30;99.90;;;;;;5099424;27;19987;-78
2022/03/05 10:07:15;;;;;;;;;;;0.40;99.90;;;;;;5125204;27;19931;-78
2022/03/05 10:09:42;;;;;;;;;;;0.40;99.90;;;;;;5119503;27;19934;-78
2022/03/05 10:12:25;;;;;;;;;;;0.30;99.90;;;;;;5121054;27;20022;-79
2022/03/05 10:15:06;;;;;;;;;;;0.30;99.90;;;;;;5122920;27;19934;-79
2022/03/05 10:17:46;;;;;;;;;;;0.20;99.90;;;;;;5107901;27;19924;-79
2022/03/05 10:20:13;;;;;;;;;;;0.30;99.90;;;;;;5106953;28;20012;-79
2022/03/05 10:22:50;;;;;;;;;;;0.30;99.90;;;;;;5107332;27;19934;-78
2022/03/05 10:25:17;;;;;;;;;;;0.30;99.90;;;;;;5122278;27;19930;-79
2022/03/05 10:27:43;;;;;;;;;;;0.20;99.90;;;;;;5110051;27;20662;-79
2022/03/05 10:30:11;;;;;;;;;;;0.30;99.90;;;;;;5124291;27;20409;-78
2022/03/05 10:32:40;;;;;;;;;;;0.30;99.90;;;;;;5102085;27;19931;-78
2022/03/05 10:35:11;;;;;;;;;;;0.30;99.90;;;;;;5120911;27;20306;-78
2022/03/05 10:37:38;;;;;;;;;;;0.30;99.90;;;;;;5102462;27;20514;-79
2022/03/05 10:40:07;;;;;;;;;;;0.40;99.90;;;;;;5117218;27;19928;-78
2022/03/05 10:42:38;;;;;;;;;;;0.40;99.90;;;;;;5119104;27;19934;-79
2022/03/05 10:45:06;;;;;;;;;;;0.40;99.90;;;;;;5120880;27;19927;-78
2022/03/05 10:47:39;;;;;;;;;;;0.40;99.90;;;;;;5117432;27;19923;-78
2022/03/05 10:50:07;;;;;;;;;;;0.40;99.90;;;;;;5116619;27;19923;-79
2022/03/05 10:52:44;;;;;;;;;;;0.50;99.90;;;;;;5100823;27;19928;-79
2022/03/05 10:55:16;;;;;;;;;;;0.40;99.90;;;;;;5120483;27;20375;-79
2022/03/05 10:57:55;;;;;;;;;;;0.50;99.90;;;;;;5105528;27;20344;-79
2022/03/05 11:00:22;;;;;;;;;;;0.60;99.90;;;;;;5123131;27;19935;-78
2022/03/05 11:02:50;;;;;;;;;;;0.60;99.90;;;;;;5101993;27;19931;-79
2022/03/05 11:05:18;;;;;;;;;;;0.60;99.90;;;;;;5118973;27;19938;-78
2022/03/05 11:07:45;;;;;;;;;;;0.60;99.90;;;;;;5119955;27;20403;-79
2022/03/05 11:10:12;;;;;;;;;;;0.70;99.90;;;;;;5101388;27;20629;-79
2022/03/05 11:12:43;;;;;;;;;;;0.70;99.90;;;;;;5123783;27;20003;-79
2022/03/05 11:15:10;;;;;;;;;;;0.70;99.90;;;;;;5103102;27;20018;-78
2022/03/05 11:17:37;;;;;;;;;;;0.70;99.90;;;;;;5105431;27;19935;-79
2022/03/05 11:20:05;;;;;;;;;;;0.70;99.90;;;;;;5118104;27;19931;-79
2022/03/05 11:22:32;;;;;;;;;;;0.70;99.90;;;;;;5119890;27;19932;-78
2022/03/05 11:24:59;;;;;;;;;;;0.80;99.90;;;;;;5122122;27;19931;-79
2022/03/05 11:27:26;;;;;;;;;;;0.80;99.90;;;;;;5105083;27;19924;-78
2022/03/05 11:29:58;;;;;;;;;;;0.90;99.90;;;;;;5119253;27;19927;-79
2022/03/05 11:32:29;;;;;;;;;;;0.90;99.90;;;;;;5094480;27;20162;-79
2022/03/05 11:34:56;;;;;;;;;;;0.90;99.90;;;;;;5119230;27;20013;-79
2022/03/05 11:37:24;;;;;;;;;;;0.90;99.90;;;;;;5119198;27;19923;-78
2022/03/05 11:39:51;;;;;;;;;;;0.90;99.90;;;;;;5111988;27;19931;-79
2022/03/05 11:42:27;;;;;;;;;;;1.00;99.90;;;;;;5119547;27;19923;-79
2022/03/05 11:44:56;;;;;;;;;;;1.00;99.90;;;;;;5100196;27;20311;-79
2022/03/05 11:47:24;;;;;;;;;;;1.00;99.90;;;;;;5100746;27;20022;-79
2022/03/05 11:50:11;;;;;;;;;;;1.00;99.90;;;;;;5099814;27;20018;-79
2022/03/05 11:52:57;;;;;;;;;;;1.10;99.90;;;;;;5100109;27;19979;-79
2022/03/05 11:55:25;;;;;;;;;;;1.20;99.90;;;;;;5121875;27;20620;-78
2022/03/05 11:58:07;;;;;;;;;;;1.20;99.90;;;;;;5115208;27;19951;-79
2022/03/05 12:00:35;;;;;;;;;;;1.20;99.90;;;;;;5095128;27;20017;-79
2022/03/05 12:03:03;;;;;;;;;;;1.20;99.90;;;;;;5117422;27;19924;-79
2022/03/05 12:05:51;;;;;;;;;;;1.30;99.90;;;;;;5117476;27;19933;-80
2022/03/05 12:08:33;;;;;;;;;;;1.30;99.90;;;;;;5100801;27;19938;-79
2022/03/05 12:11:10;;;;;;;;;;;1.30;99.90;;;;;;5114279;27;19931;-79
2022/03/05 12:34:26;;;;;;;;;;;1.50;99.90;;;;;;5134982;27;19949;-80
2022/03/05 12:36:53;;;;;;;;;;;1.60;99.90;;;;;;5128846;27;19931;-80
2022/03/05 12:39:24;;;;;;;;;;;1.60;99.90;;;;;;5133779;27;19927;-80
2022/03/05 12:41:51;;;;;;;;;;;1.60;99.90;;;;;;5136465;27;19923;-79
2022/03/05 12:44:17;;;;;;;;;;;1.70;99.90;;;;;;5131571;27;19967;-79
2022/03/05 12:46:45;;;;;;;;;;;1.70;99.90;;;;;;5129637;27;19935;-79
2022/03/05 12:49:12;;;;;;;;;;;1.70;99.90;;;;;;5128477;27;19923;-80
2022/03/05 12:51:40;;;;;;;;;;;1.70;99.90;;;;;;5136095;27;19923;-79
2022/03/05 12:54:08;;;;;;;;;;;1.70;99.90;;;;;;5143379;27;19955;-79
2022/03/05 12:56:36;;;;;;;;;;;1.80;99.90;;;;;;5136254;27;20027;-79
2022/03/05 12:59:04;;;;;;;;;;;1.80;99.90;;;;;;5143237;27;19935;-79
2022/03/05 14:00:46;;;;;;;;;;;2.30;99.90;;;;;;5107847;27;19924;-81
2022/03/05 14:03:17;;;;;;;;;;;2.50;99.90;;;;;;5124142;27;19970;-82
2022/03/05 14:05:44;;;;;;;;;;;2.60;99.90;;;;;;5129325;27;20382;-80
2022/03/05 14:08:11;;;;;;;;;;;2.60;99.90;;;;;;5130128;27;20089;-82
2022/03/05 14:10:38;;;;;;;;;;;2.60;99.90;;;;;;5131675;27;19939;-82
2022/03/05 14:13:05;;;;;;;;;;;2.60;99.90;;;;;;5145060;27;19938;-81
2022/03/05 14:15:33;;;;;;;;;;;2.70;99.90;;;;;;5135942;27;19963;-81
2022/03/05 14:18:03;;;;;;;;;;;2.70;99.60;;;;;;5133240;27;19963;-81
2022/03/05 14:20:30;;;;;;;;;;;2.70;99.50;;;;;;5132129;27;20773;-80
2022/03/05 14:22:59;;;;;;;;;;;2.70;99.90;;;;;;5129467;27;20044;-80
2022/03/05 14:25:27;;;;;;;;;;;2.80;99.90;;;;;;5131633;27;20390;-80
2022/03/05 14:27:55;;;;;;;;;;;2.80;99.90;;;;;;5129822;27;19927;-80
2022/03/05 14:30:22;;;;;;;;;;;2.80;99.70;;;;;;5135885;27;19934;-81
2022/03/05 14:32:51;;;;;;;;;;;2.80;99.60;;;;;;5130352;27;20390;-80
2022/03/05 14:35:20;;;;;;;;;;;2.90;99.20;;;;;;5133866;27;19923;-81
2022/03/05 14:37:47;;;;;;;;;;;2.90;99.50;;;;;;5130417;27;19972;-81
2022/03/05 14:40:15;;;;;;;;;;;2.90;99.60;;;;;;5131534;27;19989;-81
2022/03/05 14:42:42;;;;;;;;;;;2.90;99.10;;;;;;5131955;27;19977;-81
2022/03/05 14:45:10;;;;;;;;;;;2.90;99.80;;;;;;5138320;27;20286;-81
2022/03/05 14:47:37;;;;;;;;;;;3.00;99.30;;;;;;5132093;27;20018;-81
2022/03/05 14:50:05;;;;;;;;;;;3.00;99.10;;;;;;5135782;27;19934;-80
2022/03/05 14:52:33;;;;;;;;;;;3.00;99.10;;;;;;5130530;27;19949;-81
2022/03/05 14:55:00;;;;;;;;;;;3.00;98.60;;;;;;5132204;27;20506;-81
2022/03/05 14:57:28;;;;;;;;;;;3.00;99.20;;;;;;5134223;27;19927;-80
2022/03/05 14:59:55;;;;;;;;;;;3.00;99.40;;;;;;5127908;27;19969;-80
2022/03/05 15:02:22;;;;;;;;;;;3.10;99.10;;;;;;5115892;27;19923;-80
2022/03/05 15:04:49;;;;;;;;;;;3.10;99.00;;;;;;5114983;27;19932;-81
2022/03/05 15:07:17;;;;;;;;;;;3.10;99.10;;;;;;5117211;27;19928;-81
2022/03/05 15:09:45;;;;;;;;;;;3.10;99.40;;;;;;5109966;27;19924;-81
2022/03/05 15:12:12;;;;;;;;;;;3.10;99.30;;;;;;5115924;27;19978;-80
2022/03/05 15:14:39;;;;;;;;;;;3.10;99.50;;;;;;5113052;27;20063;-80
2022/03/05 15:17:06;;;;;;;;;;;3.10;99.60;;;;;;5110819;27;20020;-80
2022/03/05 15:19:33;;;;;;;;;;;3.20;99.40;;;;;;5118400;27;19923;-79
2022/03/05 15:22:00;;;;;;;;;;;3.20;98.80;;;;;;5133286;27;19931;-80
2022/03/05 15:24:27;;;;;;;;;;;3.20;98.60;;;;;;5121117;27;19938;-81
2022/03/05 15:26:56;;;;;;;;;;;3.20;99.10;;;;;;5112790;27;19931;-81
2022/03/05 15:29:26;;;;;;;;;;;3.30;98.50;;;;;;5123455;27;19931;-80
2022/03/05 15:31:56;;;;;;;;;;;3.20;97.20;;;;;;5120725;27;19955;-81
2022/03/05 15:34:24;;;;;;;;;;;3.20;97.90;;;;;;5117775;27;19932;-82
2022/03/05 15:36:51;;;;;;;;;;;3.20;98.00;;;;;;5114539;27;19973;-82
2022/03/05 15:39:19;;;;;;;;;;;3.30;98.90;;;;;;5122877;27;20406;-81
2022/03/05 15:41:46;;;;;;;;;;;3.30;98.60;;;;;;5125533;27;19923;-82
2022/03/05 15:44:15;;;;;;;;;;;3.30;99.10;;;;;;5136407;27;19924;-82
2022/03/05 15:46:42;;;;;;;;;;;3.30;99.40;;;;;;5121066;27;19975;-81
2022/03/05 15:49:09;;;;;;;;;;;3.30;99.00;;;;;;5122948;27;19930;-79
2022/03/05 15:51:37;;;;;;;;;;;3.30;99.90;;;;;;5112496;27;19928;-80